Afton, Minnesota
Current Conditions -  °F | °C
As of 10:10 PM on Sunday 21 Dec 2014 (Local Time) from K21D Reporting Station
Light Rain Light Rain  
Wind Chill: -1°   Ceiling: 800
Heat Index:   Visibility: 7mi
Dew Point:   Wind: 9mph
Humidity: 93%   Direction: 170°S
Pressure: 29.74"   Gusts: NA
Location:  44.9°N, 92.78°W
Report Text: K21D 220410Z AUTO 17008KT 7SM -RA OVC008 03/02 A2974 RMK AO2
Loading
Personal Weather Stations






























Interactive Weather Map New forecast layout! Learn more

10-Day Weather Forecast

Advertisements
Track Severe Weather on mobile